Terminal Aerodrome Forecast
Issued by NWS

Home | Current Version | Previous Version | Text Only | Print | Product List | Glossary On
Versions: 1 2 3 4 5 6 7 8 9 10 11 12 13 14
000
FTUS46 KPDT 182300
TAFBDN
TAF
KBDN 182320Z 1900/1924 03007KT P6SM SCT150
     FM190300 VRB05KT P6SM BKN120
     FM190600 21004KT P6SM BKN100
     FM191800 22010G20KT P6SM SCT120
     FM192000 25018G28KT P6SM SCT070=

USA.gov is the U.S. government's official web portal to all federal, state and local government web resources and services.